Time;durP1;ratioP1;P1;durP2;ratioP2;P2;SDS_P1;SDS_P2;PMS_P1;PMS_P2;Temp;Humidity;BMP_temperature;BMP_pressure;BME280_temperature;BME280_humidity;BME280_pressure;Samples;Min_cycle;Max_cycle;Signal;HPM_P1;HPM_P2
2020/12/24 00:00:39;;;;;;;14.63;7.12;;;;;;;3.23;71.15;100673.38;1803086;79;21163;-58
2020/12/24 00:03:06;;;;;;;16.07;8.40;;;;;;;3.31;71.06;100675.17;1800824;79;21171;-59
2020/12/24 00:05:34;;;;;;;13.72;7.37;;;;;;;3.35;70.98;100676.74;1795409;79;23225;-58
2020/12/24 00:08:02;;;;;;;16.42;8.10;;;;;;;3.36;70.97;100670.61;1794008;79;21163;-58
2020/12/24 00:10:31;;;;;;;15.05;7.95;;;;;;;3.33;70.96;100660.37;1793192;77;21595;-58
2020/12/24 00:12:59;;;;;;;17.73;9.08;;;;;;;3.29;71.05;100662.70;1798810;79;21184;-58
2020/12/24 00:15:26;;;;;;;17.90;9.40;;;;;;;3.26;71.10;100665.44;1805890;79;21575;-58
2020/12/24 00:17:54;;;;;;;15.32;7.58;;;;;;;3.24;71.13;100664.67;1812427;79;21981;-58
2020/12/24 00:20:23;;;;;;;17.35;9.23;;;;;;;3.21;71.18;100661.77;1792221;79;21112;-58
2020/12/24 00:22:52;;;;;;;15.88;8.18;;;;;;;3.22;71.17;100666.03;1813918;79;21140;-58
2020/12/24 00:25:20;;;;;;;14.15;7.45;;;;;;;3.35;70.95;100668.94;1792495;79;21694;-58
2020/12/24 00:27:48;;;;;;;14.60;8.05;;;;;;;3.43;70.75;100660.77;1804624;79;21187;-58
2020/12/24 00:30:15;;;;;;;16.05;8.75;;;;;;;3.47;70.69;100654.05;1806827;79;21187;-57
2020/12/24 00:32:43;;;;;;;18.60;8.78;;;;;;;3.47;70.67;100651.45;1799701;79;21195;-57
2020/12/24 00:35:11;;;;;;;14.55;8.48;;;;;;;3.47;70.70;100646.72;1799686;79;21434;-57
2020/12/24 00:37:39;;;;;;;18.67;9.00;;;;;;;3.46;70.65;100641.98;1803813;79;21111;-57
2020/12/24 00:40:06;;;;;;;18.40;10.23;;;;;;;3.44;70.65;100641.19;1809972;79;21824;-57
2020/12/24 00:42:35;;;;;;;14.30;9.68;;;;;;;3.42;70.59;100635.22;1807812;79;21186;-59
2020/12/24 00:45:02;;;;;;;19.37;10.08;;;;;;;3.40;70.66;100640.13;1790720;79;21997;-59
2020/12/24 00:47:30;;;;;;;17.92;9.60;;;;;;;3.32;70.64;100639.16;1798953;79;21128;-59
2020/12/24 00:49:59;;;;;;;16.52;9.40;;;;;;;3.31;70.63;100644.83;1784229;79;21192;-58
2020/12/24 00:52:27;;;;;;;16.37;9.58;;;;;;;3.38;70.43;100641.92;1811191;79;21160;-58
2020/12/24 00:54:55;;;;;;;16.48;8.75;;;;;;;3.41;70.34;100643.09;1801473;79;21341;-59
2020/12/24 00:58:02;;;;;;;16.17;7.78;;;;;;;3.40;70.45;100647.45;1839201;76;23134;-58
2020/12/24 01:00:30;;;;;;;29.12;9.18;;;;;;;3.33;70.57;100653.86;1791394;79;21498;-57
2020/12/24 01:02:58;;;;;;;17.77;8.95;;;;;;;3.25;70.71;100654.66;1788008;79;23652;-59
2020/12/24 01:05:25;;;;;;;18.32;8.75;;;;;;;3.19;70.92;100661.43;1803481;79;21136;-58
2020/12/24 01:07:52;;;;;;;15.38;9.20;;;;;;;3.15;71.03;100658.13;1796367;79;21142;-58
2020/12/24 01:10:20;;;;;;;16.17;9.63;;;;;;;3.10;71.10;100658.33;1812623;79;21611;-58
2020/12/24 01:12:47;;;;;;;20.62;10.03;;;;;;;3.05;71.21;100645.98;1800439;79;21042;-59
2020/12/24 01:15:15;;;;;;;14.85;9.05;;;;;;;3.07;71.19;100662.36;1811461;79;22592;-58
2020/12/24 01:17:43;;;;;;;15.08;9.45;;;;;;;3.14;71.02;100660.33;1797715;79;21623;-59
2020/12/24 01:20:10;;;;;;;15.08;8.43;;;;;;;3.21;71.00;100665.67;1799307;77;21141;-57
2020/12/24 01:22:39;;;;;;;20.08;9.53;;;;;;;3.25;70.93;100669.80;1801188;77;21148;-58
2020/12/24 01:25:06;;;;;;;16.35;9.15;;;;;;;3.22;70.98;100663.44;1743612;82;21193;-57
2020/12/24 01:27:36;;;;;;;16.70;8.15;;;;;;;3.18;71.08;100663.63;1752844;81;21205;-58
2020/12/24 01:30:05;;;;;;;15.35;9.30;;;;;;;3.13;71.20;100669.06;1804525;77;21163;-58
2020/12/24 01:32:32;;;;;;;16.57;8.48;;;;;;;3.12;71.22;100661.70;1798691;79;21093;-58
2020/12/24 01:35:00;;;;;;;18.52;9.38;;;;;;;3.09;71.25;100664.45;1803320;79;21410;-58
2020/12/24 01:37:27;;;;;;;18.45;8.80;;;;;;;3.07;71.31;100665.42;1736459;82;21145;-58
2020/12/24 01:39:56;;;;;;;16.42;8.83;;;;;;;3.06;71.26;100659.39;1752446;81;21202;-58
2020/12/24 01:42:24;;;;;;;20.20;8.65;;;;;;;3.15;71.08;100661.56;1801546;79;21173;-58
2020/12/24 01:44:53;;;;;;;14.73;8.35;;;;;;;3.23;71.02;100660.37;1794573;79;21104;-58
2020/12/24 01:47:21;;;;;;;15.10;8.23;;;;;;;3.29;71.02;100659.64;1794553;79;21837;-58
2020/12/24 01:49:49;;;;;;;19.60;8.78;;;;;;;3.33;70.96;100652.56;1801906;79;21176;-58
2020/12/24 01:52:35;;;;;;;13.38;7.62;;;;;;;3.33;70.99;100649.96;1791017;79;23670;-58
2020/12/24 01:55:09;;;;;;;18.17;9.08;;;;;;;3.32;70.95;100653.47;1796727;77;21115;-57
2020/12/24 01:57:38;;;;;;;21.33;9.68;;;;;;;3.29;70.96;100654.43;1786351;78;21239;-57
2020/12/24 02:00:09;;;;;;;21.23;9.50;;;;;;;3.26;71.02;100656.34;1779094;79;21151;-57
2020/12/24 02:02:40;;;;;;;16.60;9.45;;;;;;;3.22;71.04;100650.44;1781339;79;21159;-57
2020/12/24 02:05:07;;;;;;;20.00;9.50;;;;;;;3.19;71.11;100654.93;1789245;79;23565;-57
2020/12/24 02:07:36;;;;;;;17.52;9.15;;;;;;;3.22;71.07;100653.50;1789937;79;21156;-57
2020/12/24 02:10:04;;;;;;;17.82;8.83;;;;;;;3.32;70.82;100653.47;1801158;79;21096;-58
2020/12/24 02:12:31;;;;;;;16.77;8.30;;;;;;;3.37;70.73;100654.56;1789195;79;21570;-57
2020/12/24 02:14:59;;;;;;;13.05;7.53;;;;;;;3.35;70.70;100654.16;1806867;79;21121;-58
2020/12/24 02:17:27;;;;;;;18.60;9.65;;;;;;;3.29;70.79;100647.09;1807699;79;21688;-58
2020/12/24 02:19:54;;;;;;;19.67;8.43;;;;;;;3.22;71.03;100643.09;1799210;78;21607;-58
2020/12/24 02:22:21;;;;;;;16.97;9.00;;;;;;;3.19;71.14;100642.77;1791324;79;21128;-57
2020/12/24 02:24:49;;;;;;;15.68;8.15;;;;;;;3.15;71.21;100638.16;1790338;79;21745;-57
2020/12/24 02:27:17;;;;;;;16.48;8.33;;;;;;;3.14;71.27;100642.99;1784599;79;21135;-58
2020/12/24 02:29:45;;;;;;;16.50;9.68;;;;;;;3.11;71.33;100634.02;1792389;79;21168;-57
2020/12/24 02:32:12;;;;;;;16.70;9.08;;;;;;;3.10;71.40;100638.83;1785849;79;21180;-57
2020/12/24 02:34:40;;;;;;;21.17;9.75;;;;;;;3.16;71.28;100641.16;1737196;81;21639;-57
2020/12/24 02:37:09;;;;;;;15.45;7.80;;;;;;;3.28;71.01;100651.94;1750779;80;21790;-58
2020/12/24 02:39:37;;;;;;;15.53;8.23;;;;;;;3.36;70.85;100641.99;1773471;80;21155;-58
2020/12/24 02:42:05;;;;;;;18.02;7.87;;;;;;;3.44;70.93;100635.98;1742264;80;21933;-58
2020/12/24 02:44:34;;;;;;;16.97;9.25;;;;;;;3.50;70.74;100637.02;1753868;80;21570;-58
2020/12/24 02:47:02;;;;;;;14.30;8.60;;;;;;;3.49;70.75;100634.02;1764818;80;21169;-58
2020/12/24 02:49:29;;;;;;;17.37;9.45;;;;;;;3.52;70.65;100642.14;1793328;79;21676;-58
2020/12/24 02:51:57;;;;;;;16.00;8.40;;;;;;;3.52;70.57;100643.45;1798712;79;21611;-58
2020/12/24 02:54:24;;;;;;;15.75;7.55;;;;;;;3.47;70.53;100641.52;1800295;79;21185;-58
2020/12/24 02:56:52;;;;;;;17.77;9.40;;;;;;;3.42;70.57;100639.59;1789239;79;21990;-58
2020/12/24 02:59:19;;;;;;;14.50;7.85;;;;;;;3.35;70.58;100642.45;1801047;79;21191;-58
2020/12/24 03:01:47;;;;;;;16.27;8.80;;;;;;;3.37;70.48;100648.89;1755744;81;21138;-59
2020/12/24 03:04:14;;;;;;;16.12;7.87;;;;;;;3.44;70.41;100647.69;1770009;80;21633;-59
2020/12/24 03:06:42;;;;;;;15.00;7.67;;;;;;;3.52;70.37;100649.48;1769473;80;21469;-58
2020/12/24 03:09:10;;;;;;;15.95;8.45;;;;;;;3.60;70.24;100646.97;1743988;81;21522;-58
2020/12/24 03:11:43;;;;;;;16.57;9.48;;;;;;;3.59;70.27;100642.23;1743483;81;21167;-58
2020/12/24 03:14:10;;;;;;;17.27;8.93;;;;;;;3.59;70.37;100640.94;1748962;80;21176;-58
2020/12/24 03:16:40;;;;;;;20.08;11.68;;;;;;;3.61;70.30;100640.87;1751996;80;21175;-58
2020/12/24 03:19:07;;;;;;;21.82;11.97;;;;;;;3.62;70.18;100644.70;1772138;80;21213;-58
2020/12/24 03:21:35;;;;;;;19.12;10.58;;;;;;;3.61;70.14;100644.77;1768250;80;21198;-58
2020/12/24 03:24:03;;;;;;;20.80;11.00;;;;;;;3.56;70.15;100635.03;1767808;80;21585;-59
2020/12/24 03:26:31;;;;;;;13.32;8.08;;;;;;;3.51;70.19;100632.20;1741826;80;21621;-59
2020/12/24 03:28:59;;;;;;;16.20;8.10;;;;;;;3.52;70.04;100622.16;1776048;80;21139;-60
2020/12/24 03:31:26;;;;;;;17.10;8.55;;;;;;;3.58;69.85;100620.19;1756106;80;21301;-59
2020/12/24 03:33:54;;;;;;;14.55;8.30;;;;;;;3.61;69.84;100618.75;1757879;80;21924;-59
2020/12/24 03:36:23;;;;;;;14.93;8.13;;;;;;;3.66;69.92;100623.28;1744800;81;21159;-59
2020/12/24 03:38:52;;;;;;;17.75;9.48;;;;;;;3.66;69.91;100620.67;1752363;81;21175;-59
2020/12/24 03:41:19;;;;;;;15.75;8.08;;;;;;;3.65;69.94;100614.63;1737630;81;21215;-59
2020/12/24 03:43:48;;;;;;;16.70;8.53;;;;;;;3.65;69.98;100617.70;1741831;81;21341;-59
2020/12/24 03:46:15;;;;;;;19.80;8.98;;;;;;;3.60;69.96;100603.60;1746881;81;21990;-59
2020/12/24 03:48:42;;;;;;;16.40;9.05;;;;;;;3.56;70.08;100603.81;1739271;81;21519;-59
2020/12/24 03:51:10;;;;;;;15.85;9.43;;;;;;;3.52;70.02;100610.92;1736456;81;21195;-59
2020/12/24 03:53:38;;;;;;;16.10;9.60;;;;;;;3.46;70.12;100607.30;1757653;81;21579;-59
2020/12/24 03:56:06;;;;;;;15.85;8.85;;;;;;;3.47;70.18;100609.00;1741873;81;23604;-59
2020/12/24 03:58:34;;;;;;;14.47;8.43;;;;;;;3.56;70.06;100603.81;1759043;79;21871;-59
2020/12/24 04:01:01;;;;;;;15.23;8.90;;;;;;;3.63;69.90;100605.20;1743278;81;21148;-59
2020/12/24 04:03:30;;;;;;;16.97;9.05;;;;;;;3.66;69.84;100605.06;1751901;81;21182;-59
2020/12/24 04:05:57;;;;;;;20.52;10.05;;;;;;;3.62;69.90;100594.42;1748799;79;21242;-59
2020/12/24 04:08:24;;;;;;;18.05;10.25;;;;;;;3.58;69.99;100596.77;1756835;79;21369;-55
2020/12/24 04:10:53;;;;;;;17.10;9.63;;;;;;;3.55;70.09;100595.17;1742307;81;21152;-60
2020/12/24 04:13:21;;;;;;;14.75;8.90;;;;;;;3.51;70.15;100593.17;1747663;81;21179;-59
2020/12/24 04:15:49;;;;;;;18.20;10.13;;;;;;;3.50;70.22;100596.69;1735029;81;21200;-59
2020/12/24 04:18:17;;;;;;;18.45;9.03;;;;;;;3.47;70.24;100599.42;1718614;81;21192;-59
2020/12/24 04:20:47;;;;;;;17.95;9.93;;;;;;;3.44;70.26;100596.13;1739911;79;21374;-59
2020/12/24 04:23:15;;;;;;;15.50;9.55;;;;;;;3.43;70.12;100587.92;1739039;81;21230;-59
2020/12/24 04:25:43;;;;;;;16.25;8.58;;;;;;;3.51;70.06;100602.28;1741241;81;22295;-57
2020/12/24 04:28:10;;;;;;;14.35;7.67;;;;;;;3.57;70.01;100597.70;1797446;79;21572;-58
2020/12/24 04:30:38;;;;;;;16.93;8.35;;;;;;;3.57;69.97;100596.41;1793391;77;21092;-61
2020/12/24 04:33:05;;;;;;;13.83;6.87;;;;;;;3.51;70.18;100592.31;1803579;79;21175;-60
2020/12/24 04:35:34;;;;;;;16.05;7.55;;;;;;;3.48;70.36;100592.45;1794334;77;21123;-60
2020/12/24 04:38:02;;;;;;;12.63;7.50;;;;;;;3.45;70.45;100588.25;1789511;79;21434;-61
2020/12/24 04:40:30;;;;;;;18.95;8.78;;;;;;;3.40;70.50;100588.93;1793685;79;21847;-57
2020/12/24 04:42:58;;;;;;;14.78;8.18;;;;;;;3.34;70.66;100590.04;1789712;77;21192;-59
2020/12/24 04:45:26;;;;;;;14.30;7.33;;;;;;;3.28;70.73;100585.61;1801052;77;21380;-61
2020/12/24 04:47:56;;;;;;;18.25;8.03;;;;;;;3.25;70.76;100583.14;1793397;79;21176;-58
2020/12/24 04:50:29;;;;;;;13.50;7.60;;;;;;;3.32;70.72;100585.84;1795497;79;21081;-58
2020/12/24 04:52:57;;;;;;;14.05;7.53;;;;;;;3.38;70.60;100584.27;1790043;79;21208;-58
2020/12/24 04:55:27;;;;;;;13.10;6.92;;;;;;;3.40;70.59;100578.52;1790163;78;21219;-59
2020/12/24 04:57:58;;;;;;;12.53;6.65;;;;;;;3.35;70.71;100580.03;1801968;77;21757;-59
2020/12/24 05:00:27;;;;;;;13.78;6.22;;;;;;;3.34;70.77;100579.63;1754097;79;21180;-59
2020/12/24 05:03:10;;;;;;;14.30;7.35;;;;;;;3.32;70.81;100580.17;1789038;79;21108;-59
2020/12/24 05:05:38;;;;;;;16.90;6.85;;;;;;;3.27;70.88;100580.01;1793941;79;21605;-59
2020/12/24 05:08:08;;;;;;;13.68;7.03;;;;;;;3.21;70.96;100562.08;1785915;79;21612;-59
2020/12/24 05:10:37;;;;;;;13.72;7.45;;;;;;;3.18;71.11;100577.82;1794759;79;22088;-59
2020/12/24 05:13:19;;;;;;;13.45;6.67;;;;;;;3.25;71.13;100579.25;1791544;77;21204;-59
2020/12/24 05:15:49;;;;;;;14.03;7.53;;;;;;;3.37;70.90;100579.96;1790426;77;21206;-60
2020/12/24 05:18:24;;;;;;;14.45;6.87;;;;;;;3.44;70.81;100577.45;1794613;79;21238;-60
2020/12/24 05:20:51;;;;;;;15.40;6.83;;;;;;;3.47;70.77;100573.88;1790580;77;21179;-60
2020/12/24 05:23:20;;;;;;;13.48;6.47;;;;;;;3.44;70.86;100574.84;1797231;79;23350;-60
2020/12/24 05:25:49;;;;;;;13.18;7.55;;;;;;;3.38;71.00;100571.26;1793470;79;21204;-59
2020/12/24 05:28:23;;;;;;;12.23;6.80;;;;;;;3.33;71.17;100574.53;1792728;79;21559;-60
2020/12/24 05:30:51;;;;;;;15.50;6.53;;;;;;;3.32;71.27;100578.87;1792667;79;21191;-60
2020/12/24 05:33:29;;;;;;;15.13;7.47;;;;;;;3.23;71.33;100571.52;1798281;79;21181;-60
2020/12/24 05:36:21;;;;;;;13.28;6.53;;;;;;;3.16;71.56;100577.45;1797105;79;21212;-58
2020/12/24 05:38:57;;;;;;;13.50;6.97;;;;;;;3.23;71.54;100580.61;1864353;76;23198;-58
2020/12/24 05:41:35;;;;;;;13.25;7.30;;;;;;;3.28;71.43;100585.61;1833018;75;21628;-55
2020/12/24 05:44:08;;;;;;;13.62;6.65;;;;;;;3.35;71.35;100585.23;1833382;77;21736;-57
2020/12/24 05:46:48;;;;;;;15.15;7.72;;;;;;;3.39;71.30;100585.09;1837567;75;21607;-58
2020/12/24 05:49:21;;;;;;;17.07;6.90;;;;;;;3.38;71.40;100586.00;1803422;77;21223;-57
2020/12/24 05:52:09;;;;;;;13.40;7.10;;;;;;;3.39;71.50;100595.03;1804600;77;21721;-58
2020/12/24 05:54:36;;;;;;;14.47;7.60;;;;;;;3.39;71.42;100592.90;1778779;80;20977;-59
2020/12/24 05:57:04;;;;;;;12.73;7.10;;;;;;;3.33;71.41;100601.84;1772267;80;21200;-60
2020/12/24 05:59:36;;;;;;;12.25;6.72;;;;;;;3.26;71.53;100599.12;1777789;80;21193;-58
2020/12/24 06:02:17;;;;;;;15.93;7.10;;;;;;;3.20;71.70;100609.36;1764455;80;21206;-66
2020/12/24 06:04:51;;;;;;;13.15;6.80;;;;;;;3.22;71.67;100602.79;1768615;79;21208;-55
2020/12/24 06:07:30;;;;;;;13.25;7.05;;;;;;;3.29;71.55;100602.87;1774324;80;21618;-54
2020/12/24 06:10:08;;;;;;;15.78;7.62;;;;;;;3.34;71.55;100599.61;1771328;80;21731;-52
2020/12/24 06:12:47;;;;;;;12.20;7.05;;;;;;;3.39;71.62;100595.03;1812803;77;21207;-60
2020/12/24 06:15:32;;;;;;;12.65;7.53;;;;;;;3.39;71.70;100571.63;1862127;76;22700;-57
2020/12/24 06:18:00;;;;;;;13.50;7.70;;;;;;;3.31;71.67;100574.60;1820969;76;21102;-61
2020/12/24 06:20:30;;;;;;;14.13;6.95;;;;;;;3.29;71.80;100571.20;1865491;76;22226;-59
2020/12/24 06:23:00;;;;;;;13.03;7.12;;;;;;;3.28;71.85;100564.80;1853727;76;21147;-59
2020/12/24 06:25:27;;;;;;;12.43;6.97;;;;;;;3.26;71.90;100571.81;1850825;75;21013;-60
2020/12/24 06:27:56;;;;;;;13.32;6.87;;;;;;;3.24;71.94;100569.75;1864080;76;21139;-60
2020/12/24 06:30:26;;;;;;;11.08;5.37;;;;;;;3.27;71.88;100570.91;1824543;76;21149;-60
2020/12/24 06:33:02;;;;;;;13.48;6.35;;;;;;;3.37;71.68;100576.06;1860869;75;21484;-60
2020/12/24 06:35:38;;;;;;;8.95;5.17;;;;;;;3.42;71.54;100571.48;1785163;79;21180;-59
2020/12/24 06:38:09;;;;;;;15.13;6.72;;;;;;;3.39;71.67;100569.02;1788023;78;21227;-63
2020/12/24 06:40:40;;;;;;;12.03;5.83;;;;;;;3.37;71.81;100566.95;1809446;77;21211;-61
2020/12/24 06:43:10;;;;;;;16.48;6.83;;;;;;;3.34;71.87;100571.83;1776852;79;21256;-67
2020/12/24 06:45:39;;;;;;;12.95;6.58;;;;;;;3.29;72.02;100563.41;1796362;79;21319;-64
2020/12/24 06:48:27;;;;;;;10.88;6.17;;;;;;;3.26;72.05;100562.27;1798873;77;21770;-64
2020/12/24 06:51:01;;;;;;;14.85;7.78;;;;;;;3.27;72.13;100557.91;1790146;79;21169;-65
2020/12/24 06:53:34;;;;;;;11.00;6.78;;;;;;;3.27;72.11;100559.20;1801299;78;21269;-70
2020/12/24 06:56:19;;;;;;;9.80;5.72;;;;;;;3.32;72.05;100559.83;1796660;79;21172;-67
2020/12/24 06:59:03;;;;;;;13.60;6.00;;;;;;;3.45;71.78;100558.34;1797055;78;21224;-67
2020/12/24 07:15:18;;;;;;;13.70;7.17;;;;;;;3.34;71.95;100548.89;1871070;75;22685;-65
2020/12/24 07:17:50;;;;;;;13.05;7.62;;;;;;;3.23;72.12;100551.14;1822623;77;21215;-63
2020/12/24 07:20:18;;;;;;;13.05;7.05;;;;;;;3.20;72.20;100553.45;1776838;79;21287;-62
2020/12/24 07:22:48;;;;;;;13.43;7.42;;;;;;;3.23;72.21;100548.11;1780152;78;21203;-61
2020/12/24 07:25:16;;;;;;;13.40;6.60;;;;;;;3.39;72.07;100553.88;1756991;78;21269;-66
2020/12/24 07:27:49;;;;;;;13.40;6.40;;;;;;;3.49;71.94;100550.76;1806506;77;21491;-67
2020/12/24 07:30:21;;;;;;;12.82;6.90;;;;;;;3.59;71.78;100554.23;1773614;80;21207;-63
2020/12/24 07:32:52;;;;;;;11.95;6.65;;;;;;;3.57;71.70;100545.66;1804122;77;22014;-62
2020/12/24 07:35:20;;;;;;;9.73;5.62;;;;;;;3.54;71.78;100545.34;1776526;78;21219;-60
2020/12/24 07:37:48;;;;;;;18.12;7.15;;;;;;;3.50;71.74;100543.81;1769975;79;21643;-63
2020/12/24 07:40:19;;;;;;;16.40;7.60;;;;;;;3.41;71.85;100538.57;1765757;80;21798;-61
2020/12/24 07:42:48;;;;;;;14.68;6.05;;;;;;;3.38;72.01;100543.08;1751291;78;21561;-60
2020/12/24 07:45:24;;;;;;;11.90;6.53;;;;;;;3.37;72.01;100533.14;1775480;78;21232;-64
2020/12/24 07:47:55;;;;;;;12.75;7.55;;;;;;;3.40;71.94;100544.70;1795093;79;21206;-62
2020/12/24 07:50:31;;;;;;;12.88;6.33;;;;;;;3.51;71.75;100546.78;1780046;79;21718;-61
2020/12/24 07:53:04;;;;;;;9.28;5.42;;;;;;;3.64;71.56;100549.65;1785851;78;21204;-63
2020/12/24 07:55:34;;;;;;;13.10;6.30;;;;;;;3.70;71.42;100545.45;1780007;79;21147;-63
2020/12/24 07:58:12;;;;;;;17.92;5.90;;;;;;;3.70;71.24;100548.06;1777536;79;22073;-65
2020/12/24 08:00:52;;;;;;;11.60;6.78;;;;;;;3.67;71.30;100545.60;1781469;79;21226;-65
2020/12/24 08:03:20;;;;;;;10.88;6.28;;;;;;;3.61;71.30;100549.79;1769100;78;21179;-62
2020/12/24 08:05:49;;;;;;;11.05;5.58;;;;;;;3.54;71.40;100551.38;1804386;78;21650;-65
2020/12/24 08:08:24;;;;;;;12.15;5.03;;;;;;;3.48;71.42;100552.99;1805373;78;21626;-64
2020/12/24 08:10:52;;;;;;;12.63;6.65;;;;;;;3.39;71.39;100545.61;1795561;78;21216;-66
2020/12/24 08:13:21;;;;;;;12.82;5.97;;;;;;;3.41;71.38;100552.88;1771840;79;22002;-64
2020/12/24 08:15:51;;;;;;;10.90;5.78;;;;;;;3.43;71.43;100547.61;1771607;79;21237;-61
2020/12/24 08:18:22;;;;;;;14.65;5.90;;;;;;;3.44;71.17;100551.44;1775286;80;21143;-61
2020/12/24 08:21:02;;;;;;;11.28;6.25;;;;;;;3.33;71.38;100551.95;1781446;78;21235;-63
2020/12/24 08:23:51;;;;;;;10.25;5.78;;;;;;;3.28;71.68;100551.80;1775942;79;21285;-64
2020/12/24 08:26:20;;;;;;;11.35;5.37;;;;;;;3.22;71.79;100545.58;1777339;78;21219;-61
2020/12/24 08:28:58;;;;;;;9.80;4.78;;;;;;;3.13;71.88;100554.66;1764238;80;21169;-64
2020/12/24 08:31:29;;;;;;;10.18;4.75;;;;;;;3.09;71.98;100560.45;1776376;80;21104;-64
2020/12/24 08:33:59;;;;;;;9.85;5.10;;;;;;;3.13;71.85;100563.75;1803362;77;21116;-61
2020/12/24 08:36:27;;;;;;;11.30;4.72;;;;;;;3.09;71.91;100563.49;1774662;80;23528;-59
2020/12/24 08:39:06;;;;;;;10.48;4.50;;;;;;;3.05;72.15;100560.20;1768154;78;21140;-61
2020/12/24 08:41:40;;;;;;;9.38;4.75;;;;;;;3.00;72.19;100552.23;1770762;79;21141;-62
2020/12/24 08:44:11;;;;;;;9.18;4.00;;;;;;;2.90;72.39;100556.53;1790904;79;21181;-63
2020/12/24 08:46:41;;;;;;;8.38;4.45;;;;;;;2.80;72.57;100552.67;1771861;79;21173;-67
2020/12/24 08:49:23;;;;;;;10.72;5.03;;;;;;;2.76;72.70;100549.37;1777440;79;22128;-62
2020/12/24 08:52:20;;;;;;;10.18;4.17;;;;;;;2.81;72.72;100537.47;1771039;79;21187;-61
2020/12/24 08:55:06;;;;;;;12.75;5.80;;;;;;;2.83;72.83;100538.23;1775343;78;21132;-64
2020/12/24 08:57:37;;;;;;;6.55;3.67;;;;;;;2.82;72.77;100526.61;1802183;77;21167;-64
2020/12/24 09:00:08;;;;;;;9.48;4.58;;;;;;;2.72;72.95;100523.14;1772709;78;21195;-61
2020/12/24 09:02:37;;;;;;;8.25;4.40;;;;;;;2.66;73.07;100506.52;1799587;78;21201;-62
2020/12/24 09:05:07;;;;;;;9.28;4.53;;;;;;;2.69;73.20;100509.42;1807078;77;21209;-61
2020/12/24 09:07:44;;;;;;;9.23;4.90;;;;;;;2.85;73.06;100496.59;1804038;78;21471;-62
2020/12/24 09:10:15;;;;;;;12.65;5.30;;;;;;;3.01;72.91;100496.27;1803194;77;21651;-65
2020/12/24 09:12:47;;;;;;;12.30;5.50;;;;;;;3.11;72.69;100489.72;1810623;78;21210;-66
2020/12/24 09:15:17;;;;;;;11.05;5.33;;;;;;;3.16;72.60;100489.48;1807784;78;21642;-61
2020/12/24 09:17:58;;;;;;;10.23;4.92;;;;;;;3.16;72.40;100487.74;1810160;78;21183;-62
2020/12/24 09:20:31;;;;;;;8.68;4.92;;;;;;;3.16;72.43;100492.08;1777471;79;21666;-64
2020/12/24 09:23:04;;;;;;;8.78;4.87;;;;;;;3.15;72.20;100487.34;1809552;77;21191;-62
2020/12/24 09:25:43;;;;;;;9.20;4.95;;;;;;;3.05;72.19;100480.90;1780688;79;21336;-64
2020/12/24 09:28:25;;;;;;;8.95;5.28;;;;;;;3.05;72.20;100482.67;1776306;80;21949;-64
2020/12/24 09:30:58;;;;;;;10.03;4.72;;;;;;;3.10;72.14;100477.63;1777284;79;21172;-61
2020/12/24 09:33:27;;;;;;;8.88;4.83;;;;;;;3.20;72.10;100472.00;1820120;77;21165;-68
2020/12/24 09:35:57;;;;;;;8.50;3.95;;;;;;;3.30;72.10;100465.44;1810223;77;21665;-65
2020/12/24 09:38:27;;;;;;;7.87;4.08;;;;;;;3.36;71.96;100465.12;1784495;79;21140;-62
2020/12/24 09:40:54;;;;;;;8.15;4.05;;;;;;;3.38;71.76;100459.84;1804286;77;21539;-60
2020/12/24 09:43:22;;;;;;;8.23;3.70;;;;;;;3.39;71.78;100461.54;1820436;78;21164;-61
2020/12/24 09:45:51;;;;;;;8.25;3.35;;;;;;;3.41;71.70;100449.30;1808292;78;21623;-61
2020/12/24 09:48:21;;;;;;;7.53;3.87;;;;;;;3.42;71.58;100445.79;1817423;77;21133;-62
2020/12/24 09:50:48;;;;;;;7.15;3.30;;;;;;;3.39;71.49;100449.37;1812359;77;21111;-61
2020/12/24 09:53:17;;;;;;;7.78;3.62;;;;;;;3.42;71.42;100449.22;1814328;77;21210;-62
2020/12/24 09:55:45;;;;;;;7.15;3.60;;;;;;;3.50;71.17;100450.98;1816075;77;21575;-65
2020/12/24 09:58:14;;;;;;;7.45;3.27;;;;;;;3.51;71.12;100442.72;1815885;78;21674;-64
2020/12/24 10:00:42;;;;;;;6.20;2.90;;;;;;;3.51;71.17;100445.31;1791519;79;21390;-61
2020/12/24 10:03:10;;;;;;;9.75;4.00;;;;;;;3.47;71.28;100443.33;1817552;77;21167;-62
2020/12/24 10:05:38;;;;;;;7.90;4.08;;;;;;;3.42;71.46;100434.91;1815719;77;21216;-62
2020/12/24 10:08:07;;;;;;;8.53;4.45;;;;;;;3.40;71.52;100435.92;1773833;80;21216;-60
2020/12/24 10:10:35;;;;;;;7.92;4.12;;;;;;;3.38;71.68;100437.30;1781114;79;21547;-61
2020/12/24 10:13:03;;;;;;;11.10;5.03;;;;;;;3.33;71.59;100431.48;1785020;79;21567;-62
2020/12/24 10:15:32;;;;;;;9.23;4.58;;;;;;;3.31;71.67;100422.45;1785426;78;21132;-62
2020/12/24 10:18:03;;;;;;;11.20;4.05;;;;;;;3.39;71.56;100411.65;1788468;78;22756;-64
2020/12/24 10:20:32;;;;;;;10.03;4.50;;;;;;;3.46;71.43;100416.95;1776222;78;21175;-62
2020/12/24 10:23:02;;;;;;;9.43;4.28;;;;;;;3.49;71.31;100410.27;1755986;81;21531;-60
2020/12/24 10:25:32;;;;;;;8.80;4.45;;;;;;;3.42;71.39;100411.97;1775911;79;21218;-62
2020/12/24 10:28:00;;;;;;;11.18;5.67;;;;;;;3.37;71.56;100403.09;1785775;80;21183;-63
2020/12/24 10:30:28;;;;;;;10.38;5.03;;;;;;;3.33;71.65;100402.41;1765370;79;21220;-62
2020/12/24 10:32:56;;;;;;;10.32;5.22;;;;;;;3.29;71.80;100391.75;1767750;80;21190;-61
2020/12/24 10:35:23;;;;;;;8.70;4.90;;;;;;;3.29;71.76;100387.02;1780025;79;21594;-61
2020/12/24 10:37:52;;;;;;;7.92;4.53;;;;;;;3.29;71.77;100381.81;1781368;79;21151;-61
2020/12/24 10:40:19;;;;;;;8.85;4.75;;;;;;;3.39;71.57;100388.23;1776828;80;21703;-60
2020/12/24 10:42:48;;;;;;;11.57;5.60;;;;;;;3.48;71.40;100378.69;1773706;79;22356;-60
2020/12/24 10:45:16;;;;;;;11.43;6.20;;;;;;;3.52;71.43;100378.06;1775048;80;21183;-62
2020/12/24 10:47:44;;;;;;;11.57;6.12;;;;;;;3.58;71.30;100374.30;1784578;79;21563;-61
2020/12/24 10:50:12;;;;;;;10.23;5.42;;;;;;;3.56;71.24;100375.68;1781565;79;21240;-62
2020/12/24 10:52:40;;;;;;;9.23;4.80;;;;;;;3.54;71.26;100375.75;1774591;80;21615;-62
2020/12/24 10:55:11;;;;;;;11.15;6.12;;;;;;;3.52;71.20;100374.16;1779992;79;21328;-61
2020/12/24 10:57:38;;;;;;;14.33;7.33;;;;;;;3.49;71.21;100369.95;1777477;80;21777;-61
2020/12/24 11:00:07;;;;;;;9.78;6.45;;;;;;;3.46;71.27;100367.52;1764697;80;21225;-69
2020/12/24 11:02:37;;;;;;;11.30;6.65;;;;;;;3.51;71.09;100362.92;1762122;79;21163;-65
2020/12/24 11:05:07;;;;;;;10.13;5.70;;;;;;;3.58;70.91;100351.75;1765173;79;21822;-64
2020/12/24 11:07:36;;;;;;;11.45;5.75;;;;;;;3.67;70.76;100344.75;1778362;80;23596;-63
2020/12/24 11:10:04;;;;;;;11.90;6.40;;;;;;;3.72;70.71;100341.92;1774846;79;21235;-70
2020/12/24 11:12:32;;;;;;;11.08;5.22;;;;;;;3.74;70.99;100337.47;1771981;80;21211;-72
2020/12/24 11:15:00;;;;;;;9.83;4.67;;;;;;;3.76;70.88;100339.99;1779639;78;21642;-68
2020/12/24 11:17:30;;;;;;;11.03;6.00;;;;;;;3.75;70.77;100340.90;1771966;79;21183;-65
2020/12/24 11:19:59;;;;;;;9.33;5.97;;;;;;;3.69;70.73;100330.36;1776966;80;22233;-69
2020/12/24 11:22:27;;;;;;;12.98;5.90;;;;;;;3.66;70.88;100329.22;1802862;77;21174;-67
2020/12/24 11:24:55;;;;;;;10.65;5.58;;;;;;;3.62;70.87;100329.84;1800379;78;21653;-66
2020/12/24 11:27:25;;;;;;;11.03;5.85;;;;;;;3.67;70.98;100323.10;1798028;78;21216;-62
2020/12/24 11:29:52;;;;;;;10.20;5.60;;;;;;;3.81;70.52;100316.69;1781858;80;21607;-67
2020/12/24 11:32:20;;;;;;;12.40;7.80;;;;;;;3.84;70.08;100306.59;1807361;77;23539;-68
2020/12/24 11:34:47;;;;;;;14.25;7.42;;;;;;;3.76;70.26;100306.98;1808105;78;21192;-62
2020/12/24 11:37:16;;;;;;;11.80;7.50;;;;;;;3.73;70.67;100304.55;1785742;79;21622;-62
2020/12/24 11:39:44;;;;;;;12.78;6.70;;;;;;;3.69;70.51;100307.77;1797078;77;21914;-70
2020/12/24 11:42:14;;;;;;;10.68;6.08;;;;;;;3.67;70.49;100303.59;1810862;77;21117;-64
2020/12/24 11:44:42;;;;;;;12.00;5.97;;;;;;;3.65;70.51;100301.53;1775067;80;21194;-67
2020/12/24 11:47:10;;;;;;;13.22;7.22;;;;;;;3.58;70.44;100301.45;1806079;77;21176;-69
2020/12/24 11:49:38;;;;;;;10.68;5.78;;;;;;;3.59;70.65;100297.47;1775881;78;21176;-66
2020/12/24 11:52:06;;;;;;;13.32;6.90;;;;;;;3.70;70.37;100293.02;1768806;79;21199;-67
2020/12/24 11:54:36;;;;;;;11.38;5.95;;;;;;;3.76;70.18;100288.77;1777812;79;21144;-67